createdAt,value
2018-09-11T00:02:55.128Z,21.00
2018-09-11T00:08:00.258Z,20.90
2018-09-11T00:13:05.161Z,20.80
2018-09-11T00:18:10.111Z,20.70
2018-09-11T00:23:15.052Z,20.60
2018-09-11T00:28:20.042Z,20.50
2018-09-11T00:33:25.064Z,20.50
2018-09-11T00:38:30.011Z,20.50
2018-09-11T00:43:35.012Z,20.60
2018-09-11T00:48:39.952Z,20.70
2018-09-11T00:53:44.871Z,20.70
2018-09-11T00:58:49.778Z,20.90
2018-09-11T01:03:54.659Z,21.20
2018-09-11T01:08:59.569Z,21.20
2018-09-11T01:14:04.582Z,21.30
2018-09-11T01:19:09.619Z,21.30
2018-09-11T01:24:15.142Z,21.30
2018-09-11T01:29:20.037Z,21.20
2018-09-11T01:34:25.018Z,21.30
2018-09-11T01:39:29.985Z,21.50
2018-09-11T01:44:34.960Z,21.50
2018-09-11T01:49:39.905Z,21.50
2018-09-11T01:54:44.888Z,21.50
2018-09-11T01:59:49.796Z,21.50
2018-09-11T02:04:55.215Z,21.40
2018-09-11T02:10:00.224Z,21.50
2018-09-11T02:15:05.415Z,21.40
2018-09-11T02:20:10.471Z,21.00
2018-09-11T02:25:15.339Z,21.10
2018-09-11T02:30:20.736Z,21.00
2018-09-11T02:35:25.758Z,20.80
2018-09-11T02:40:30.681Z,20.90
2018-09-11T02:45:35.644Z,20.60
2018-09-11T02:50:40.622Z,20.60
2018-09-11T02:55:45.590Z,20.70
2018-09-11T03:00:50.543Z,20.60
2018-09-11T03:05:55.527Z,20.40
2018-09-11T03:11:00.564Z,20.40
2018-09-11T03:16:05.592Z,20.50
2018-09-11T03:21:10.588Z,20.30
2018-09-11T03:26:15.547Z,20.30
2018-09-11T03:31:20.527Z,20.40
2018-09-11T03:36:25.530Z,20.50
2018-09-11T03:41:30.526Z,20.60
2018-09-11T03:46:35.490Z,20.50
2018-09-11T03:51:40.476Z,20.60
2018-09-11T03:56:45.342Z,20.80
2018-09-11T04:01:50.276Z,20.90
2018-09-11T04:06:55.144Z,21.00
2018-09-11T04:12:00.127Z,21.00
2018-09-11T04:17:05.087Z,21.00
2018-09-11T04:22:10.058Z,21.00
2018-09-11T04:27:15.085Z,21.00
2018-09-11T04:32:20.011Z,21.00
2018-09-11T04:37:24.937Z,21.10
2018-09-11T04:42:29.892Z,21.00
2018-09-11T04:47:34.774Z,21.00
2018-09-11T04:52:39.783Z,21.00
2018-09-11T04:57:45.140Z,20.90
2018-09-11T05:02:50.128Z,20.90
2018-09-11T05:07:55.236Z,20.90
2018-09-11T05:13:00.170Z,20.90
2018-09-11T05:18:05.155Z,20.90
2018-09-11T05:23:10.096Z,20.90
2018-09-11T05:28:14.974Z,20.90
2018-09-11T05:33:20.105Z,21.00
2018-09-11T05:38:25.192Z,20.90
2018-09-11T05:43:30.349Z,20.90
2018-09-11T05:48:35.375Z,20.90
2018-09-11T05:53:40.318Z,20.90
2018-09-11T05:58:45.268Z,21.00
2018-09-11T06:03:50.226Z,21.10
2018-09-11T06:08:55.062Z,21.10
2018-09-11T06:14:00.061Z,21.20
2018-09-11T06:19:05.246Z,21.30
2018-09-11T06:24:10.216Z,21.40
2018-09-11T06:29:15.116Z,21.60
2018-09-11T06:34:20.163Z,21.60
2018-09-11T06:39:25.208Z,21.80
2018-09-11T06:44:30.105Z,22.00
2018-09-11T06:49:35.065Z,22.20
2018-09-11T06:54:40.226Z,22.30
2018-09-11T06:59:45.051Z,22.40
2018-09-11T07:04:50.007Z,22.50
2018-09-11T07:09:54.959Z,22.60
2018-09-11T07:14:59.893Z,22.80
2018-09-11T07:20:05.555Z,22.90
2018-09-11T07:25:10.313Z,23.20
2018-09-11T07:30:15.220Z,23.40
2018-09-11T07:35:20.164Z,23.60
2018-09-11T07:40:25.152Z,23.70
2018-09-11T07:45:30.034Z,23.80
2018-09-11T07:50:34.944Z,23.80
2018-09-11T07:55:40.022Z,24.00
2018-09-11T08:00:44.852Z,24.20
2018-09-11T08:05:49.816Z,24.40
2018-09-11T08:10:54.771Z,24.70
2018-09-11T08:15:59.843Z,24.90
2018-09-11T08:21:04.697Z,25.10
2018-09-11T08:26:09.632Z,25.30
2018-09-11T08:31:15.240Z,25.30
2018-09-11T08:36:20.135Z,25.50
2018-09-11T08:41:25.171Z,25.60
2018-09-11T08:46:30.166Z,25.80
2018-09-11T08:51:35.043Z,25.80
2018-09-11T08:56:39.885Z,26.10
2018-09-11T09:01:44.782Z,26.50
2018-09-11T09:06:49.750Z,26.60
2018-09-11T09:11:54.565Z,26.70
2018-09-11T09:16:59.495Z,26.80
2018-09-11T09:22:04.548Z,26.90
2018-09-11T09:27:09.837Z,26.90
2018-09-11T09:32:15.030Z,27.10
2018-09-11T09:37:19.982Z,27.10
2018-09-11T09:42:25.026Z,27.20
2018-09-11T09:47:29.941Z,27.50
2018-09-11T09:52:34.893Z,27.50
2018-09-11T09:57:39.810Z,27.60
2018-09-11T10:02:44.796Z,27.50
2018-09-11T10:07:49.751Z,27.80
2018-09-11T10:12:54.661Z,27.80
2018-09-11T10:17:59.599Z,28.00
2018-09-11T10:23:04.524Z,28.20
2018-09-11T10:28:09.424Z,28.40
2018-09-11T10:33:14.359Z,28.70
2018-09-11T10:38:19.231Z,28.80
2018-09-11T10:43:24.205Z,28.80
2018-09-11T10:48:29.696Z,29.10
2018-09-11T10:53:34.572Z,29.50
2018-09-11T10:58:39.543Z,29.80
2018-09-11T11:03:45.584Z,29.90
2018-09-11T11:08:50.610Z,30.20
2018-09-11T11:13:55.550Z,30.40
2018-09-11T11:19:00.444Z,30.80
2018-09-11T11:24:05.416Z,31.00
2018-09-11T11:29:10.388Z,30.90
2018-09-11T11:34:15.381Z,30.50
2018-09-11T11:39:20.315Z,30.90
2018-09-11T11:44:25.327Z,31.30
2018-09-11T11:49:30.168Z,31.40
2018-09-11T11:54:35.134Z,31.30
2018-09-11T11:59:40.195Z,31.70
2018-09-11T12:04:45.230Z,31.50
2018-09-11T12:09:50.080Z,31.80
2018-09-11T12:14:54.977Z,31.80
2018-09-11T12:20:00.111Z,32.00
2018-09-11T12:25:05.212Z,32.30
2018-09-11T12:30:10.205Z,32.30
2018-09-11T12:35:15.247Z,32.00
2018-09-11T12:40:20.189Z,32.20
2018-09-11T12:45:25.258Z,32.50
2018-09-11T12:50:30.274Z,32.50
2018-09-11T12:55:35.171Z,32.20
2018-09-11T13:00:40.084Z,32.20
2018-09-11T13:05:45.035Z,32.20
2018-09-11T13:10:49.985Z,32.40
2018-09-11T13:15:54.901Z,32.50
2018-09-11T13:20:59.816Z,32.40
2018-09-11T13:26:05.580Z,31.80
2018-09-11T13:31:10.426Z,32.60
2018-09-11T13:36:15.352Z,32.30
2018-09-11T13:41:20.398Z,32.90
2018-09-11T13:46:25.349Z,32.60
2018-09-11T13:51:30.671Z,32.30
2018-09-11T13:56:35.537Z,32.50
2018-09-11T14:01:41.228Z,32.40
2018-09-11T14:06:46.289Z,32.30
2018-09-11T14:11:51.182Z,32.20
2018-09-11T14:16:56.117Z,32.40
2018-09-11T14:22:01.106Z,32.30
2018-09-11T14:27:06.001Z,32.60
2018-09-11T14:32:10.885Z,32.80
2018-09-11T14:37:15.839Z,33.10
2018-09-11T14:42:20.869Z,32.70
2018-09-11T14:47:29.871Z,31.80
2018-09-11T14:52:34.930Z,30.60
2018-09-11T14:57:39.843Z,29.90
2018-09-11T15:02:44.873Z,29.30
2018-09-11T15:07:49.860Z,29.00
2018-09-11T15:12:54.792Z,28.80
2018-09-11T15:17:59.778Z,28.70
2018-09-11T15:23:04.649Z,28.80
2018-09-11T15:28:09.645Z,28.90
2018-09-11T15:33:14.660Z,28.90
2018-09-11T15:38:21.936Z,29.00
2018-09-11T15:43:26.793Z,29.70
2018-09-11T15:48:31.919Z,30.70
2018-09-11T15:53:36.804Z,30.50
2018-09-11T15:58:41.740Z,30.60
2018-09-11T16:03:46.682Z,29.70
2018-09-11T16:08:51.616Z,28.90
2018-09-11T16:13:56.564Z,28.50
2018-09-11T16:19:01.482Z,28.50
2018-09-11T16:24:06.439Z,28.30
2018-09-11T16:29:11.304Z,28.40
2018-09-11T16:34:16.236Z,28.50
2018-09-11T16:39:21.244Z,28.40
2018-09-11T16:44:26.117Z,28.20
2018-09-11T16:49:31.055Z,28.20
2018-09-11T16:54:36.100Z,28.10
2018-09-11T16:59:40.988Z,28.00
2018-09-11T17:04:46.093Z,28.20
2018-09-11T17:09:50.995Z,28.00
2018-09-11T17:14:55.895Z,28.00
2018-09-11T17:20:00.819Z,27.60
2018-09-11T17:25:05.731Z,27.30
2018-09-11T17:30:11.154Z,26.90
2018-09-11T17:35:16.208Z,27.10
2018-09-11T17:40:21.146Z,27.10
2018-09-11T17:45:26.095Z,26.80
2018-09-11T17:50:31.652Z,26.60
2018-09-11T17:55:36.646Z,26.50
2018-09-11T18:00:42.324Z,26.30
2018-09-11T18:05:47.422Z,26.20
2018-09-11T18:10:52.363Z,26.20
2018-09-11T18:15:57.191Z,26.10
2018-09-11T18:21:02.189Z,25.90
2018-09-11T18:26:07.471Z,25.90
2018-09-11T18:31:12.458Z,25.90
2018-09-11T18:36:17.470Z,25.90
2018-09-11T18:41:22.429Z,25.80
2018-09-11T18:46:27.266Z,25.70
2018-09-11T18:51:32.629Z,25.50
2018-09-11T18:56:37.478Z,25.20
2018-09-11T19:01:42.622Z,25.10
2018-09-11T19:06:47.542Z,24.70
2018-09-11T19:11:52.643Z,24.60
2018-09-11T19:16:57.553Z,24.50
2018-09-11T19:22:02.433Z,24.40
2018-09-11T19:27:07.386Z,24.20
2018-09-11T19:32:12.359Z,24.30
2018-09-11T19:37:17.405Z,24.30
2018-09-11T19:42:22.427Z,24.10
2018-09-11T19:47:27.406Z,23.90
2018-09-11T19:52:32.580Z,23.70
2018-09-11T19:57:37.682Z,23.50
2018-09-11T20:02:42.832Z,23.60
2018-09-11T20:07:47.790Z,23.50
2018-09-11T20:12:52.892Z,23.40
2018-09-11T20:17:57.842Z,23.40
2018-09-11T20:23:02.721Z,23.40
2018-09-11T20:28:08.029Z,23.60
2018-09-11T20:33:13.061Z,23.70
2018-09-11T20:38:18.029Z,23.70
2018-09-11T20:43:23.029Z,23.80
2018-09-11T20:48:28.130Z,23.80
2018-09-11T20:53:33.182Z,23.90
2018-09-11T20:58:38.124Z,23.60
2018-09-11T21:03:43.043Z,23.60
2018-09-11T21:08:47.896Z,23.90
2018-09-11T21:13:52.916Z,24.20
2018-09-11T21:18:57.835Z,24.30
2018-09-11T21:24:02.702Z,24.20
2018-09-11T21:29:07.699Z,24.30
2018-09-11T21:34:12.776Z,24.40
2018-09-11T21:39:17.679Z,24.30
2018-09-11T21:44:22.571Z,24.20
2018-09-11T21:49:27.536Z,24.20
2018-09-11T21:54:32.596Z,24.30
2018-09-11T21:59:37.613Z,24.10
2018-09-11T22:04:42.522Z,23.90
2018-09-11T22:09:47.908Z,23.90
2018-09-11T22:14:52.894Z,23.70
2018-09-11T22:19:58.047Z,23.60
2018-09-11T22:25:02.979Z,23.50
2018-09-11T22:30:08.007Z,23.40
2018-09-11T22:35:13.108Z,23.30
2018-09-11T22:40:18.088Z,23.10
2018-09-11T22:45:23.081Z,23.10
2018-09-11T22:50:28.248Z,23.10
2018-09-11T22:55:33.349Z,22.90
2018-09-11T23:00:38.280Z,22.80
2018-09-11T23:05:43.138Z,22.70
2018-09-11T23:10:48.031Z,22.70
2018-09-11T23:15:53.184Z,22.70
2018-09-11T23:20:58.176Z,22.70
2018-09-11T23:26:03.202Z,22.80
2018-09-11T23:31:08.427Z,22.80
2018-09-11T23:36:13.314Z,22.80
2018-09-11T23:41:18.411Z,22.70
2018-09-11T23:46:23.291Z,22.60
2018-09-11T23:51:28.148Z,22.60
2018-09-11T23:56:33.203Z,22.70
